Time;durP1;ratioP1;P1;durP2;ratioP2;P2;SDS_P1;SDS_P2;PMS_P1;PMS_P2;Temp;Humidity;BMP_temperature;BMP_pressure;BME280_temperature;BME280_humidity;BME280_pressure;Samples;Min_cycle;Max_cycle;Signal;HPM_P1;HPM_P2
2021/12/30 00:02:21;;;;;;;11.13;8.70;;;;;;;6.59;100.00;94272.34;5120064;28;20444;-79
2021/12/30 00:04:49;;;;;;;9.63;7.20;;;;;;;6.49;100.00;94273.09;5119519;28;20448;-78
2021/12/30 00:07:16;;;;;;;14.10;9.40;;;;;;;6.56;100.00;94280.44;5119895;28;20468;-79
2021/12/30 00:09:43;;;;;;;14.07;8.60;;;;;;;6.59;100.00;94275.78;5119883;28;20501;-79
2021/12/30 00:12:12;;;;;;;8.90;6.93;;;;;;;6.46;100.00;94277.72;5119525;28;20475;-78
2021/12/30 00:14:39;;;;;;;11.47;7.87;;;;;;;6.39;100.00;94268.75;5119409;28;20484;-79
2021/12/30 00:17:06;;;;;;;12.87;7.70;;;;;;;6.37;100.00;94276.69;5119575;28;20450;-79
2021/12/30 00:19:33;;;;;;;11.00;6.90;;;;;;;6.29;100.00;94273.00;5119328;28;20812;-79
2021/12/30 00:22:01;;;;;;;10.33;7.70;;;;;;;6.30;100.00;94267.66;5119379;28;20444;-78
2021/12/30 00:24:29;;;;;;;9.53;6.90;;;;;;;6.26;100.00;94275.84;5119445;28;20451;-79
2021/12/30 00:26:56;;;;;;;9.23;7.10;;;;;;;6.25;100.00;94284.59;5119648;28;20444;-78
2021/12/30 00:29:24;;;;;;;12.27;8.40;;;;;;;6.19;100.00;94286.75;5119211;28;20447;-79
2021/12/30 00:31:51;;;;;;;11.50;7.60;;;;;;;6.19;100.00;94297.16;5119671;28;20481;-79
2021/12/30 00:34:18;;;;;;;8.60;6.47;;;;;;;6.23;100.00;94297.75;5119343;28;20471;-78
2021/12/30 00:36:45;;;;;;;7.07;5.97;;;;;;;6.21;100.00;94294.44;5119371;28;20467;-79
2021/12/30 00:39:14;;;;;;;7.80;6.30;;;;;;;6.16;100.00;94294.78;5119330;28;20935;-78
2021/12/30 00:41:40;;;;;;;8.23;6.33;;;;;;;6.17;100.00;94293.84;5119799;28;20428;-78
2021/12/30 00:44:07;;;;;;;6.93;5.70;;;;;;;6.16;100.00;94297.41;5119454;28;20454;-78
2021/12/30 00:46:34;;;;;;;8.50;6.10;;;;;;;6.22;100.00;94299.53;5119572;28;20531;-79
2021/12/30 00:49:01;;;;;;;8.57;5.97;;;;;;;6.16;100.00;94292.19;5119277;28;20451;-79
2021/12/30 00:51:28;;;;;;;7.07;5.57;;;;;;;6.15;100.00;94298.34;5119211;28;20444;-79
2021/12/30 00:53:55;;;;;;;8.33;5.83;;;;;;;6.12;100.00;94293.38;5066826;28;20483;-79
2021/12/30 00:56:23;;;;;;;6.90;5.40;;;;;;;6.14;100.00;94294.09;5119344;28;20471;-79
2021/12/30 00:58:52;;;;;;;6.97;5.43;;;;;;;6.11;100.00;94304.75;5119139;28;20439;-78
2021/12/30 01:01:19;;;;;;;6.80;5.23;;;;;;;6.15;100.00;94308.75;5119508;28;20450;-79
2021/12/30 01:03:46;;;;;;;6.50;5.50;;;;;;;6.15;100.00;94305.34;5119299;28;20447;-79
2021/12/30 01:06:13;;;;;;;6.73;6.03;;;;;;;6.10;100.00;94308.28;5119305;28;20436;-79
2021/12/30 01:08:39;;;;;;;12.23;5.93;;;;;;;6.02;100.00;94305.44;5063269;28;20953;-79
2021/12/30 01:11:08;;;;;;;11.00;5.77;;;;;;;6.04;100.00;94313.13;5115910;28;20435;-79
2021/12/30 01:13:40;;;;;;;10.33;6.77;;;;;;;6.08;100.00;94320.59;5115894;28;20993;-79
2021/12/30 01:16:16;;;;;;;5.77;5.20;;;;;;;6.14;100.00;94314.91;5115987;28;20473;-79
2021/12/30 01:18:55;;;;;;;9.47;5.83;;;;;;;6.10;100.00;94312.69;5116553;28;20445;-79
2021/12/30 01:21:25;;;;;;;7.30;4.80;;;;;;;6.08;100.00;94318.00;5116129;28;20447;-78
2021/12/30 01:23:52;;;;;;;9.13;6.07;;;;;;;6.11;100.00;94330.78;5115914;28;20472;-78
2021/12/30 01:26:19;;;;;;;6.13;5.03;;;;;;;6.12;100.00;94329.84;5116097;28;20448;-79
2021/12/30 01:28:49;;;;;;;7.67;4.60;;;;;;;6.11;100.00;94327.34;5115837;28;20454;-79
2021/12/30 01:31:16;;;;;;;4.57;4.17;;;;;;;6.10;100.00;94326.53;5115138;28;20835;-79
2021/12/30 01:33:44;;;;;;;5.20;4.30;;;;;;;6.06;100.00;94327.69;5115634;28;20850;-79
2021/12/30 01:36:11;;;;;;;5.47;4.10;;;;;;;6.09;100.00;94329.25;5115547;28;20468;-79
2021/12/30 01:38:38;;;;;;;5.50;4.80;;;;;;;5.99;100.00;94331.69;5115311;28;20451;-79
2021/12/30 01:41:08;;;;;;;5.13;4.00;;;;;;;5.98;100.00;94318.81;5079990;28;20444;-79
2021/12/30 01:43:36;;;;;;;4.90;4.40;;;;;;;6.01;100.00;94328.97;5115237;28;20449;-78
2021/12/30 01:46:05;;;;;;;4.83;4.43;;;;;;;6.06;100.00;94322.47;5079331;28;20489;-79
2021/12/30 01:48:32;;;;;;;4.50;4.10;;;;;;;6.09;100.00;94322.25;5115596;28;20460;-79
2021/12/30 01:50:59;;;;;;;4.20;3.80;;;;;;;6.09;100.00;94330.06;5115087;28;20451;-79
2021/12/30 01:53:26;;;;;;;4.20;3.90;;;;;;;6.14;100.00;94325.34;5115016;28;20491;-79
2021/12/30 01:55:53;;;;;;;3.93;3.50;;;;;;;6.13;100.00;94331.50;5115717;28;20478;-79
2021/12/30 01:58:20;;;;;;;5.13;3.80;;;;;;;6.11;100.00;94320.38;5115050;28;20454;-79
2021/12/30 02:00:50;;;;;;;4.23;3.83;;;;;;;6.15;100.00;94332.22;5114937;28;20531;-78
2021/12/30 02:03:19;;;;;;;4.93;4.47;;;;;;;6.15;100.00;94339.19;5115012;28;20453;-79
2021/12/30 02:05:46;;;;;;;3.60;3.37;;;;;;;6.05;100.00;94336.44;5114761;28;20441;-79
2021/12/30 02:08:15;;;;;;;4.53;3.90;;;;;;;6.01;100.00;94329.81;5114612;28;20447;-79
2021/12/30 02:10:44;;;;;;;3.40;3.10;;;;;;;6.01;100.00;94329.81;5115039;28;20446;-78
2021/12/30 02:13:13;;;;;;;4.77;4.13;;;;;;;6.06;100.00;94330.28;5115246;28;20433;-79
2021/12/30 02:15:40;;;;;;;4.67;4.27;;;;;;;6.11;100.00;94341.22;5115089;28;20494;-79
2021/12/30 02:18:08;;;;;;;4.20;3.80;;;;;;;6.12;100.00;94335.06;5115072;28;20437;-79
2021/12/30 02:20:45;;;;;;;4.90;3.37;;;;;;;6.16;100.00;94339.06;5113647;28;20452;-79
2021/12/30 02:23:14;;;;;;;4.80;4.40;;;;;;;6.18;100.00;94334.56;5114884;28;20468;-79
2021/12/30 02:25:41;;;;;;;5.43;4.40;;;;;;;6.17;100.00;94339.91;5114621;28;20440;-79
2021/12/30 02:28:10;;;;;;;6.00;4.60;;;;;;;6.18;100.00;94344.16;5114841;28;20459;-79
2021/12/30 02:30:37;;;;;;;4.13;3.83;;;;;;;6.13;100.00;94339.31;5114344;28;20944;-78
2021/12/30 02:33:05;;;;;;;4.90;4.00;;;;;;;6.11;100.00;94346.41;5114413;28;20831;-79
2021/12/30 02:35:32;;;;;;;4.13;3.77;;;;;;;6.16;100.00;94346.88;5078537;28;20440;-78
2021/12/30 02:38:01;;;;;;;4.17;3.77;;;;;;;6.22;100.00;94356.84;5114508;28;20488;-78
2021/12/30 02:40:32;;;;;;;4.20;3.80;;;;;;;6.18;100.00;94365.84;5114177;28;20827;-79
2021/12/30 02:42:59;;;;;;;3.50;3.20;;;;;;;6.18;100.00;94352.81;5114358;28;20949;-79
2021/12/30 02:45:26;;;;;;;6.33;4.80;;;;;;;6.19;100.00;94356.25;5114211;28;20990;-78
2021/12/30 02:47:53;;;;;;;4.03;3.63;;;;;;;6.13;100.00;94352.34;5114138;28;20815;-79
2021/12/30 02:50:20;;;;;;;4.93;4.43;;;;;;;6.16;100.00;94365.13;5114065;28;20447;-79
2021/12/30 02:52:47;;;;;;;3.83;3.53;;;;;;;6.16;100.00;94359.91;5114568;28;20452;-78
2021/12/30 02:55:16;;;;;;;4.00;3.60;;;;;;;6.09;100.00;94363.94;5114103;28;20951;-78
2021/12/30 02:57:43;;;;;;;4.00;3.60;;;;;;;6.09;100.00;94368.31;5113850;28;20804;-79
2021/12/30 03:00:11;;;;;;;4.00;3.70;;;;;;;6.05;100.00;94362.47;5113720;28;20452;-78
2021/12/30 03:02:38;;;;;;;3.70;3.40;;;;;;;6.11;100.00;94374.25;5114123;28;20449;-79
2021/12/30 03:05:07;;;;;;;3.60;3.30;;;;;;;6.14;100.00;94371.41;5114038;28;20470;-78
2021/12/30 03:07:35;;;;;;;6.17;3.73;;;;;;;6.20;100.00;94381.34;5113530;28;20447;-79
2021/12/30 03:10:02;;;;;;;4.00;3.60;;;;;;;6.22;100.00;94388.09;5113822;28;20439;-79
2021/12/30 03:12:30;;;;;;;5.90;4.23;;;;;;;6.22;100.00;94379.44;5113730;28;20437;-78
2021/12/30 03:14:59;;;;;;;4.50;4.10;;;;;;;6.32;100.00;94382.19;5113569;28;20481;-79
2021/12/30 03:17:26;;;;;;;4.37;3.97;;;;;;;6.35;100.00;94385.38;5113507;28;20440;-78
2021/12/30 03:19:57;;;;;;;4.50;4.10;;;;;;;6.33;100.00;94394.25;5113829;28;20956;-80
2021/12/30 03:22:25;;;;;;;4.90;4.50;;;;;;;6.34;100.00;94403.72;5113398;28;20943;-79
2021/12/30 03:24:52;;;;;;;4.07;3.77;;;;;;;6.33;100.00;94395.09;5113840;28;20447;-79
2021/12/30 03:27:19;;;;;;;4.30;3.90;;;;;;;6.36;100.00;94407.06;5113371;28;20441;-79
2021/12/30 03:29:47;;;;;;;6.10;5.50;;;;;;;6.38;100.00;94405.19;5113736;28;20444;-79
2021/12/30 03:32:14;;;;;;;6.10;5.50;;;;;;;6.38;100.00;94413.00;5112920;28;20946;-79
2021/12/30 03:34:41;;;;;;;5.10;4.70;;;;;;;6.37;100.00;94414.78;5077136;28;20474;-79
2021/12/30 03:37:07;;;;;;;7.80;6.00;;;;;;;6.35;100.00;94406.22;5113097;28;20440;-78
2021/12/30 03:39:34;;;;;;;10.07;6.40;;;;;;;6.40;100.00;94403.28;5113492;28;20441;-79
2021/12/30 03:42:01;;;;;;;6.23;5.60;;;;;;;6.35;100.00;94416.66;5113090;28;20792;-78
2021/12/30 03:44:28;;;;;;;6.17;4.83;;;;;;;6.33;100.00;94413.31;5077091;28;20810;-78
2021/12/30 03:46:57;;;;;;;5.10;4.60;;;;;;;6.38;100.00;94416.44;5113489;28;20460;-79
2021/12/30 03:49:24;;;;;;;5.67;4.43;;;;;;;6.42;100.00;94417.03;5113378;28;20452;-79
2021/12/30 03:51:52;;;;;;;4.90;4.50;;;;;;;6.43;100.00;94416.91;5113707;28;20440;-79
2021/12/30 03:54:20;;;;;;;4.87;4.40;;;;;;;6.48;100.00;94421.78;5112851;28;21042;-79
2021/12/30 03:56:47;;;;;;;4.63;4.23;;;;;;;6.45;100.00;94422.84;5077146;28;20440;-79
2021/12/30 03:59:14;;;;;;;6.70;5.40;;;;;;;6.48;100.00;94417.38;5060773;28;20436;-79
2021/12/30 04:01:44;;;;;;;10.40;7.57;;;;;;;6.46;100.00;94429.72;5113555;28;20437;-78
2021/12/30 04:04:12;;;;;;;9.20;6.93;;;;;;;6.46;100.00;94434.91;5113037;28;20445;-79
2021/12/30 04:06:39;;;;;;;7.03;6.33;;;;;;;6.40;100.00;94434.56;5112804;28;20450;-79
2021/12/30 04:09:07;;;;;;;11.90;10.70;;;;;;;6.41;100.00;94441.44;5077446;28;20459;-79
2021/12/30 04:11:35;;;;;;;21.93;17.17;;;;;;;6.36;100.00;94444.38;5113006;28;20535;-79
2021/12/30 04:14:03;;;;;;;18.47;16.43;;;;;;;6.37;100.00;94445.22;5113102;28;20478;-78
2021/12/30 04:16:32;;;;;;;17.47;12.87;;;;;;;6.31;100.00;94456.06;5112719;28;20444;-79
2021/12/30 04:18:59;;;;;;;9.07;7.57;;;;;;;6.31;100.00;94456.91;5112921;28;20446;-78
2021/12/30 04:21:28;;;;;;;14.30;12.60;;;;;;;6.36;100.00;94462.63;5112948;28;20798;-78
2021/12/30 04:23:55;;;;;;;10.77;9.67;;;;;;;6.40;100.00;94466.66;5113133;28;20451;-79
2021/12/30 04:26:22;;;;;;;8.73;7.90;;;;;;;6.34;100.00;94461.06;5060540;28;20454;-78
2021/12/30 04:28:49;;;;;;;12.23;10.60;;;;;;;6.39;100.00;94472.00;5113220;28;20455;-79
2021/12/30 04:31:16;;;;;;;10.90;8.80;;;;;;;6.39;100.00;94472.00;5112626;28;20441;-79
2021/12/30 04:33:44;;;;;;;9.67;6.53;;;;;;;6.39;100.00;94485.84;5112290;28;20933;-79
2021/12/30 04:36:11;;;;;;;10.77;5.50;;;;;;;6.44;100.00;94490.72;5112690;28;20818;-78
2021/12/30 04:38:40;;;;;;;5.90;5.30;;;;;;;6.44;100.00;94494.16;5112599;28;20544;-79
2021/12/30 04:41:07;;;;;;;6.80;6.00;;;;;;;6.41;100.00;94493.56;5113024;28;21130;-79
2021/12/30 04:43:34;;;;;;;9.57;7.83;;;;;;;6.46;100.00;94492.25;5114514;28;20439;-79
2021/12/30 04:46:03;;;;;;;11.30;8.40;;;;;;;6.48;100.00;94500.78;5116524;28;20453;-79
2021/12/30 04:48:29;;;;;;;10.97;9.10;;;;;;;6.52;100.00;94506.59;5116367;28;20853;-78
2021/12/30 04:50:56;;;;;;;7.00;6.30;;;;;;;6.56;100.00;94508.03;5116368;28;21047;-79
2021/12/30 04:53:24;;;;;;;5.67;4.80;;;;;;;6.53;100.00;94508.25;5116487;28;20459;-78
2021/12/30 04:55:52;;;;;;;5.47;4.97;;;;;;;6.48;100.00;94510.38;5116360;28;20503;-78
2021/12/30 04:58:20;;;;;;;6.47;5.10;;;;;;;6.42;100.00;94516.88;5116429;28;20451;-78
2021/12/30 05:00:47;;;;;;;7.87;5.20;;;;;;;6.26;100.00;94529.38;5116549;28;20440;-79
2021/12/30 05:03:15;;;;;;;10.07;7.00;;;;;;;6.15;100.00;94524.97;5115898;28;20451;-79
2021/12/30 05:05:44;;;;;;;6.27;5.20;;;;;;;6.06;100.00;94530.81;5116369;28;20543;-78
2021/12/30 05:08:11;;;;;;;4.50;4.10;;;;;;;6.02;100.00;94532.00;5115900;28;20448;-78
2021/12/30 05:10:39;;;;;;;4.33;3.90;;;;;;;5.94;100.00;94518.72;5115891;28;20440;-79
2021/12/30 05:13:09;;;;;;;4.17;3.77;;;;;;;5.94;99.71;94529.13;5115855;28;20444;-78
2021/12/30 05:15:37;;;;;;;5.07;4.63;;;;;;;5.95;100.00;94537.78;5117016;28;20479;-79
2021/12/30 05:18:04;;;;;;;6.87;5.40;;;;;;;5.80;100.00;94531.88;5117076;28;20443;-78
2021/12/30 05:20:32;;;;;;;8.20;5.87;;;;;;;5.81;100.00;94536.16;5116554;28;21017;-79
2021/12/30 05:23:01;;;;;;;6.80;6.10;;;;;;;5.79;99.88;94538.84;5115964;28;20439;-78
2021/12/30 05:25:28;;;;;;;6.03;4.60;;;;;;;5.80;100.00;94557.91;5115654;28;20812;-78
2021/12/30 05:27:56;;;;;;;5.70;4.57;;;;;;;5.82;100.00;94553.44;5079926;28;20455;-79
2021/12/30 05:30:25;;;;;;;8.20;7.10;;;;;;;5.84;100.00;94561.97;5115872;28;20469;-78
2021/12/30 05:32:54;;;;;;;11.27;7.80;;;;;;;5.85;100.00;94571.44;5063965;28;20450;-79
2021/12/30 05:35:21;;;;;;;11.47;6.27;;;;;;;5.89;100.00;94572.88;5115919;28;20480;-78
2021/12/30 05:37:48;;;;;;;11.60;7.13;;;;;;;5.87;98.79;94578.19;5063362;28;20765;-79
2021/12/30 05:40:18;;;;;;;13.63;9.07;;;;;;;5.89;98.94;94584.16;5116173;28;20435;-80
2021/12/30 05:42:45;;;;;;;14.43;8.63;;;;;;;5.87;99.00;94587.78;5115638;28;20440;-79
2021/12/30 05:45:15;;;;;;;15.53;9.90;;;;;;;5.83;98.47;94596.75;5116256;28;20446;-79
2021/12/30 05:47:46;;;;;;;11.90;7.30;;;;;;;5.78;98.00;94596.22;5115372;28;20452;-78
2021/12/30 05:50:15;;;;;;;6.03;5.33;;;;;;;5.79;98.55;94593.53;5115153;28;20436;-79
2021/12/30 05:52:42;;;;;;;5.83;5.17;;;;;;;5.69;97.29;94592.50;5115249;28;20441;-79
2021/12/30 05:55:09;;;;;;;8.73;5.73;;;;;;;5.72;97.27;94597.47;5114846;28;20490;-79
2021/12/30 05:57:37;;;;;;;10.73;7.33;;;;;;;5.68;96.26;94609.06;5115274;28;20438;-78
2021/12/30 06:00:05;;;;;;;9.27;6.50;;;;;;;5.66;97.62;94604.91;5115142;28;20933;-78
2021/12/30 06:02:32;;;;;;;22.73;9.80;;;;;;;5.75;96.88;94614.66;5029917;28;20448;-78
2021/12/30 06:05:00;;;;;;;11.00;8.30;;;;;;;5.71;95.56;94613.22;5115327;28;20448;-78
2021/12/30 06:07:27;;;;;;;15.47;9.87;;;;;;;5.73;95.50;94619.13;5115390;28;20466;-79
2021/12/30 06:09:54;;;;;;;13.53;10.00;;;;;;;5.78;95.48;94617.91;5114916;28;20449;-78
2021/12/30 06:12:21;;;;;;;9.40;7.17;;;;;;;5.82;95.66;94621.94;5115457;28;20445;-78
2021/12/30 06:14:48;;;;;;;3.63;3.33;;;;;;;5.77;93.64;94633.59;5115194;28;20848;-79
2021/12/30 06:17:15;;;;;;;4.17;3.40;;;;;;;5.75;93.72;94638.91;5115591;28;20444;-78
2021/12/30 06:19:43;;;;;;;3.83;3.50;;;;;;;5.77;93.74;94650.06;5115070;28;20443;-79
2021/12/30 06:22:12;;;;;;;6.17;4.17;;;;;;;5.79;93.17;94656.00;5115024;28;20455;-79
2021/12/30 06:24:40;;;;;;;4.90;4.40;;;;;;;5.78;93.83;94656.97;5115122;28;20450;-78
2021/12/30 06:27:07;;;;;;;11.40;4.90;;;;;;;5.82;93.27;94665.38;5079236;28;20436;-78
2021/12/30 06:29:35;;;;;;;7.93;4.90;;;;;;;5.86;92.67;94672.88;5114990;28;20783;-78
2021/12/30 06:32:02;;;;;;;19.77;7.20;;;;;;;5.88;93.60;94677.97;5114862;28;20440;-79
2021/12/30 06:34:29;;;;;;;11.70;6.13;;;;;;;5.90;92.18;94678.72;5114469;28;20439;-79
2021/12/30 06:36:56;;;;;;;10.70;6.00;;;;;;;5.88;92.23;94678.78;5114242;28;20443;-79
2021/12/30 06:39:24;;;;;;;13.17;5.80;;;;;;;5.94;93.17;94684.53;5114577;28;20452;-79
2021/12/30 06:41:51;;;;;;;6.77;5.37;;;;;;;5.99;92.60;94691.09;5114650;28;20458;-79
2021/12/30 06:44:18;;;;;;;6.43;4.07;;;;;;;5.99;90.65;94706.72;5061747;28;20445;-79
2021/12/30 06:46:53;;;;;;;6.60;4.17;;;;;;;6.04;91.19;94709.00;5114459;28;20477;-79
2021/12/30 06:49:20;;;;;;;12.60;8.30;;;;;;;6.00;90.56;94716.19;5061140;28;20977;-79
2021/12/30 06:51:47;;;;;;;21.33;8.83;;;;;;;5.96;90.87;94719.13;5114321;28;20480;-78
2021/12/30 06:54:14;;;;;;;21.13;10.10;;;;;;;5.93;90.34;94721.94;5114270;28;20442;-79
2021/12/30 06:56:42;;;;;;;19.60;11.63;;;;;;;5.89;89.84;94721.28;5078037;28;20484;-78
2021/12/30 06:59:09;;;;;;;7.40;6.20;;;;;;;5.88;89.83;94722.22;5113952;28;20459;-79
2021/12/30 07:01:36;;;;;;;10.13;5.57;;;;;;;5.87;90.12;94739.63;5113733;28;20443;-78
2021/12/30 07:04:03;;;;;;;11.23;6.53;;;;;;;5.83;89.97;94742.56;5113845;28;20446;-78
2021/12/30 07:06:30;;;;;;;6.67;5.70;;;;;;;5.80;90.00;94753.19;5113090;28;20450;-79
2021/12/30 07:08:57;;;;;;;12.67;7.93;;;;;;;5.79;90.42;94744.53;5061172;28;20451;-78
2021/12/30 07:11:23;;;;;;;12.87;8.07;;;;;;;5.81;90.63;94754.84;5113651;28;20441;-79
2021/12/30 07:13:52;;;;;;;8.97;6.83;;;;;;;5.81;89.51;94767.88;5113962;28;20457;-79
2021/12/30 07:16:19;;;;;;;8.40;6.63;;;;;;;5.82;90.51;94767.75;5113310;28;20475;-79
2021/12/30 07:18:46;;;;;;;11.90;6.60;;;;;;;5.77;89.86;94784.59;5113423;28;20830;-79
2021/12/30 07:21:13;;;;;;;9.07;7.10;;;;;;;5.80;90.18;94779.22;5114052;28;20449;-79
2021/12/30 07:23:40;;;;;;;10.40;7.57;;;;;;;5.83;90.04;94795.47;5113500;28;20472;-79
2021/12/30 07:26:07;;;;;;;15.93;9.60;;;;;;;5.91;90.75;94797.56;5113485;28;20434;-79
2021/12/30 07:28:34;;;;;;;10.80;7.33;;;;;;;5.89;89.54;94796.81;5113425;28;20444;-79
2021/12/30 07:31:02;;;;;;;14.40;7.20;;;;;;;5.88;89.65;94806.38;5061193;28;20451;-79
2021/12/30 07:33:29;;;;;;;6.50;4.30;;;;;;;5.84;87.80;94809.31;5077909;28;20453;-79
2021/12/30 07:35:56;;;;;;;6.83;5.57;;;;;;;5.79;88.53;94808.78;5113317;28;20977;-79
2021/12/30 07:38:23;;;;;;;15.83;7.83;;;;;;;5.85;89.52;94818.78;5113347;28;20444;-79
2021/12/30 07:40:50;;;;;;;22.13;12.20;;;;;;;5.94;88.64;94814.75;5060853;28;20448;-79
2021/12/30 07:43:17;;;;;;;18.63;10.73;;;;;;;5.95;88.78;94819.84;5061348;28;20452;-78
2021/12/30 07:45:44;;;;;;;7.43;5.07;;;;;;;5.88;86.96;94824.63;5113444;28;20480;-78
2021/12/30 07:48:12;;;;;;;7.23;4.97;;;;;;;5.84;87.51;94825.75;5113759;28;20452;-79
2021/12/30 07:50:41;;;;;;;6.53;5.07;;;;;;;5.80;87.36;94826.91;5061343;28;20455;-78
2021/12/30 07:53:08;;;;;;;8.80;6.07;;;;;;;5.78;88.71;94827.91;5113972;28;20433;-79
2021/12/30 07:55:35;;;;;;;7.90;5.30;;;;;;;5.77;89.00;94834.06;5113269;28;20834;-78
2021/12/30 07:58:02;;;;;;;7.43;6.00;;;;;;;5.71;88.28;94831.88;5112880;28;20451;-79
2021/12/30 08:00:29;;;;;;;9.63;5.57;;;;;;;5.73;87.70;94841.25;5113416;28;20443;-78
2021/12/30 08:02:56;;;;;;;22.40;11.63;;;;;;;5.74;87.62;94840.31;5060705;28;20443;-79
2021/12/30 08:05:30;;;;;;;30.53;18.00;;;;;;;5.79;88.67;94840.03;5113386;28;20478;-79
2021/12/30 08:07:58;;;;;;;48.77;20.80;;;;;;;5.84;89.21;94848.38;5112771;28;20451;-79
2021/12/30 08:10:25;;;;;;;31.20;13.90;;;;;;;5.83;88.99;94849.31;5112576;28;20443;-79
2021/12/30 08:12:54;;;;;;;15.20;11.03;;;;;;;5.75;87.36;94849.78;5113085;28;20974;-78
2021/12/30 08:15:22;;;;;;;11.10;7.83;;;;;;;5.63;86.55;94847.19;5061031;28;20489;-79
2021/12/30 08:17:50;;;;;;;7.27;6.30;;;;;;;5.60;87.80;94856.88;5115484;28;20457;-79
2021/12/30 08:20:19;;;;;;;7.53;5.10;;;;;;;5.67;87.98;94861.66;5116658;28;20489;-78
2021/12/30 08:22:47;;;;;;;8.07;6.23;;;;;;;5.72;86.50;94864.78;5116587;28;20489;-79
2021/12/30 08:25:17;;;;;;;11.60;6.10;;;;;;;5.74;86.90;94868.13;5116519;28;20439;-78
2021/12/30 08:27:48;;;;;;;9.10;6.30;;;;;;;5.73;87.25;94863.84;5116530;28;20929;-79
2021/12/30 08:30:17;;;;;;;13.43;5.90;;;;;;;5.69;86.75;94875.41;5116930;28;20957;-80
2021/12/30 08:32:45;;;;;;;14.70;8.53;;;;;;;5.68;87.61;94877.19;5117011;28;20440;-78
2021/12/30 08:35:16;;;;;;;6.30;5.47;;;;;;;5.64;86.67;94888.72;5116960;28;20936;-78
2021/12/30 08:37:44;;;;;;;12.10;8.47;;;;;;;5.74;86.64;94895.00;5116717;28;20470;-79
2021/12/30 08:40:14;;;;;;;7.00;4.90;;;;;;;5.67;86.25;94891.13;5116674;28;20854;-78
2021/12/30 08:42:42;;;;;;;17.67;10.57;;;;;;;5.77;87.58;94896.56;5116522;28;20458;-79
2021/12/30 08:45:11;;;;;;;14.23;9.63;;;;;;;5.83;87.82;94899.59;5116189;28;20946;-79
2021/12/30 08:47:39;;;;;;;14.10;7.83;;;;;;;5.90;88.48;94900.06;5116432;28;20547;-79
2021/12/30 08:50:09;;;;;;;15.60;10.33;;;;;;;6.01;88.60;94907.16;5116840;28;20477;-78
2021/12/30 08:52:36;;;;;;;9.93;5.47;;;;;;;5.90;85.34;94915.69;5064757;28;20444;-78
2021/12/30 08:55:05;;;;;;;10.00;6.93;;;;;;;5.94;86.76;94922.34;5116450;28;20775;-78
2021/12/30 08:57:36;;;;;;;6.87;5.73;;;;;;;5.89;87.12;94921.81;5063790;28;20449;-78
2021/12/30 09:00:05;;;;;;;8.20;5.40;;;;;;;5.85;87.37;94928.16;5064878;28;20518;-78
2021/12/30 09:02:32;;;;;;;12.60;8.70;;;;;;;5.90;87.99;94920.91;5116050;28;20459;-78
2021/12/30 09:04:59;;;;;;;14.43;7.33;;;;;;;5.94;88.16;94924.97;5115969;28;20473;-79
2021/12/30 09:07:26;;;;;;;6.50;5.60;;;;;;;5.94;86.75;94926.72;5116036;28;20452;-79
2021/12/30 09:09:53;;;;;;;13.93;7.07;;;;;;;5.89;85.88;94924.41;5116016;28;20443;-78
2021/12/30 09:12:21;;;;;;;7.70;4.77;;;;;;;5.90;86.35;94931.31;5063646;28;20452;-79
2021/12/30 09:14:49;;;;;;;7.63;5.67;;;;;;;5.94;85.49;94931.94;5115923;28;20452;-78
2021/12/30 09:17:16;;;;;;;13.23;7.93;;;;;;;5.87;86.27;94934.91;5115535;28;20486;-78
2021/12/30 09:19:43;;;;;;;7.60;5.90;;;;;;;5.72;85.66;94941.13;5116080;28;20441;-78
2021/12/30 09:22:10;;;;;;;12.00;6.83;;;;;;;5.68;86.15;94941.41;5063355;28;20439;-78
2021/12/30 09:24:37;;;;;;;7.70;5.13;;;;;;;5.70;87.07;94949.97;5063012;28;20920;-79
2021/12/30 09:27:04;;;;;;;11.77;7.37;;;;;;;5.71;86.41;94951.63;5115748;28;20439;-79
2021/12/30 09:29:31;;;;;;;10.20;7.90;;;;;;;5.66;86.12;94951.94;5115619;28;20443;-79
2021/12/30 09:31:59;;;;;;;9.47;6.30;;;;;;;5.72;86.35;94948.94;5115725;28;20466;-79
2021/12/30 09:34:26;;;;;;;11.37;6.77;;;;;;;5.76;85.64;94946.97;5115608;28;20444;-78
2021/12/30 09:36:53;;;;;;;6.60;5.00;;;;;;;5.74;84.82;94954.88;5115287;28;20484;-79
2021/12/30 09:39:20;;;;;;;12.07;7.37;;;;;;;5.77;85.69;94953.81;5063174;28;20435;-79
2021/12/30 09:41:48;;;;;;;9.63;6.90;;;;;;;5.82;86.07;94964.81;5115566;28;20801;-79
2021/12/30 09:44:17;;;;;;;10.47;6.83;;;;;;;5.84;87.02;94973.34;5115980;28;20459;-79
2021/12/30 09:46:45;;;;;;;15.03;8.87;;;;;;;5.80;85.48;94966.69;5115805;28;20444;-79
2021/12/30 09:49:17;;;;;;;11.90;8.27;;;;;;;5.80;85.50;94962.31;5116428;28;20893;-79
2021/12/30 09:51:44;;;;;;;10.50;8.03;;;;;;;5.79;85.02;94970.22;5115655;28;20444;-78
2021/12/30 09:54:11;;;;;;;13.90;6.33;;;;;;;5.91;85.29;94964.22;5115668;28;20657;-78
2021/12/30 09:56:39;;;;;;;11.03;6.47;;;;;;;6.04;85.42;94970.28;5115661;28;21022;-78
2021/12/30 09:59:07;;;;;;;9.73;7.77;;;;;;;6.09;84.52;94967.41;5115213;28;20465;-78
2021/12/30 10:01:36;;;;;;;6.00;5.40;;;;;;;6.16;83.87;94973.88;5114954;28;20495;-78
2021/12/30 10:04:04;;;;;;;7.43;5.37;;;;;;;6.19;84.10;94965.84;5114879;28;20526;-79
2021/12/30 10:06:34;;;;;;;5.17;4.50;;;;;;;6.21;84.17;94967.41;5115537;28;20483;-78
2021/12/30 10:09:09;;;;;;;4.93;3.53;;;;;;;6.11;83.05;94974.19;5062646;28;20436;-78
2021/12/30 10:11:44;;;;;;;3.60;3.27;;;;;;;6.12;83.05;94975.84;5115163;28;20459;-78
2021/12/30 10:14:11;;;;;;;5.63;4.27;;;;;;;6.17;82.12;94975.53;5115336;28;20595;-78
2021/12/30 10:16:38;;;;;;;6.77;3.33;;;;;;;6.15;83.01;94980.03;5114806;28;20488;-78
2021/12/30 10:19:06;;;;;;;3.70;3.40;;;;;;;6.15;82.70;94980.03;5115259;28;20452;-78
2021/12/30 10:21:36;;;;;;;2.77;2.00;;;;;;;6.16;81.82;94985.13;5114622;28;20451;-79
2021/12/30 10:24:07;;;;;;;5.70;4.70;;;;;;;6.22;82.82;94979.50;5115335;28;20440;-78
2021/12/30 10:26:49;;;;;;;13.40;7.67;;;;;;;6.19;82.00;94979.72;5114422;28;20442;-78
2021/12/30 10:29:16;;;;;;;9.47;6.90;;;;;;;6.31;82.77;94978.06;5114339;28;20534;-78
2021/12/30 10:31:44;;;;;;;9.63;6.90;;;;;;;6.44;82.63;94978.09;5062340;28;20459;-79
2021/12/30 10:34:12;;;;;;;9.10;6.37;;;;;;;6.48;83.14;94980.38;5114659;28;20444;-78
2021/12/30 10:36:43;;;;;;;8.30;6.83;;;;;;;6.46;81.85;94986.63;5115231;28;20469;-78
2021/12/30 10:39:21;;;;;;;8.00;4.80;;;;;;;6.09;81.98;94993.47;5115587;28;20491;-78
2021/12/30 10:41:50;;;;;;;10.70;5.43;;;;;;;6.24;83.09;94986.38;5114196;28;20448;-79
2021/12/30 10:44:18;;;;;;;5.07;4.10;;;;;;;6.30;82.84;94986.81;5114583;28;20453;-79
2021/12/30 10:46:48;;;;;;;4.70;4.07;;;;;;;6.42;83.09;94980.78;5113932;28;20445;-79
2021/12/30 10:49:22;;;;;;;5.10;4.57;;;;;;;6.52;82.79;94978.38;5114745;28;20452;-79
2021/12/30 10:51:52;;;;;;;6.23;4.93;;;;;;;6.39;81.67;94985.38;5061684;28;20446;-79
2021/12/30 10:54:20;;;;;;;18.37;6.83;;;;;;;6.48;82.31;94976.94;5113847;28;20463;-79
2021/12/30 10:56:54;;;;;;;11.33;5.90;;;;;;;6.60;82.79;94977.88;5078498;28;20765;-79
2021/12/30 10:59:24;;;;;;;9.83;7.40;;;;;;;6.76;82.42;94986.31;5061382;28;20445;-79
2021/12/30 11:01:55;;;;;;;10.23;7.50;;;;;;;6.82;82.58;94984.13;5113439;28;20445;-79
2021/12/30 11:04:31;;;;;;;13.40;9.33;;;;;;;6.95;81.88;94978.91;5114161;28;20442;-79
2021/12/30 11:07:00;;;;;;;13.10;8.37;;;;;;;7.07;81.79;94982.44;5113693;28;20445;-80
2021/12/30 11:09:27;;;;;;;24.30;9.13;;;;;;;7.18;80.93;94979.91;5113932;28;20457;-79
2021/12/30 11:11:58;;;;;;;9.20;7.90;;;;;;;7.28;79.58;94990.56;5077386;28;20441;-79
2021/12/30 11:14:26;;;;;;;14.23;8.80;;;;;;;7.37;79.24;94990.72;5114362;28;20458;-79
2021/12/30 11:17:09;;;;;;;11.50;7.73;;;;;;;7.47;79.70;94991.72;5113813;28;20478;-82
2021/12/30 11:19:40;;;;;;;20.00;11.47;;;;;;;7.50;79.48;94989.84;5113512;28;20446;-79
2021/12/30 11:22:13;;;;;;;16.73;11.90;;;;;;;7.51;78.80;94999.34;5113999;28;20457;-79
2021/12/30 11:24:41;;;;;;;19.80;12.93;;;;;;;7.53;77.95;95003.53;5113628;28;20445;-79
2021/12/30 11:27:10;;;;;;;19.43;12.13;;;;;;;7.47;78.36;95001.34;5114340;28;20442;-80
2021/12/30 11:29:39;;;;;;;34.00;14.00;;;;;;;7.38;78.80;95009.84;5113911;28;20500;-79
2021/12/30 11:32:08;;;;;;;11.33;6.60;;;;;;;7.30;79.04;95010.38;5113289;28;20442;-79
2021/12/30 11:34:36;;;;;;;19.13;9.60;;;;;;;7.27;79.74;95022.81;5113696;28;20452;-79
2021/12/30 11:37:04;;;;;;;18.90;12.57;;;;;;;7.12;79.65;95019.47;5113803;28;20508;-79
2021/12/30 11:39:33;;;;;;;31.17;17.30;;;;;;;6.99;80.07;95019.50;5113720;28;20933;-79